Decoded Metar for KBJJ (WOOSTER in OH, USA) (IATA:BJJ) | Meteo·Mobile Aviation Weather
aviador You're here:

KBJJ Decoded Metar

WOOSTER in OH, USA
Report Time2019-02-22 22:56:00
UTC Time2019-02-23 00:53:41
Flight Rules Old
Wind110° at 03 kt
W.Decomp.*RWY 10: 2.9 kt HW 0.9 kt RCW
W.Rank110° ranks 30
Current wind is below 110° avg. (5.7)
Visibility9999 m
Phenomena:N/A
Clouds:N/A
Expected CloudBase > 2,000 ft AGL from Temp-Dew spread
CeilingNone
Temp02°C (ISA -11)
Dew Point-3°C (70% RH)
AAT-1.5°C
QNH1028 hPa
Density Alt-617 ft
Elevation1,125 ft
Report Wrong Elevation
Raw Report
KBJJ 222256Z AUTO 11003KT 10SM CLR 02/M03 A3037 RMK AO2 SLP296
T00171033=

Extra information for KBJJ:More info

Metar Taf Metar & Taf Last 4 Metars F.Rules Stats Wind Profile Meteogram Temp Stats Airport Information Weather charts Add Link Nearby VenuesMetar ALERT Operation Metar Decoded Social comments

AIRNAV info for KBJJ